createdAt,value
2023-10-20T00:02:29.048Z,23.60
2023-10-20T00:05:00.143Z,26.30
2023-10-20T00:07:33.988Z,23.43
2023-10-20T00:10:06.996Z,24.83
2023-10-20T00:12:36.545Z,24.20
2023-10-20T00:15:10.560Z,22.23
2023-10-20T00:17:42.624Z,25.03
2023-10-20T00:20:19.510Z,23.77
2023-10-20T00:22:51.017Z,24.47
2023-10-20T00:25:20.022Z,24.70
2023-10-20T00:27:49.490Z,24.50
2023-10-20T00:30:20.655Z,23.97
2023-10-20T00:32:50.162Z,23.53
2023-10-20T00:35:20.409Z,23.73
2023-10-20T00:37:52.240Z,23.60
2023-10-20T00:40:21.374Z,22.50
2023-10-20T00:42:53.517Z,23.30
2023-10-20T00:45:22.096Z,23.40
2023-10-20T00:47:52.769Z,24.57
2023-10-20T00:50:22.070Z,22.93
2023-10-20T00:53:07.165Z,23.60
2023-10-20T00:55:36.169Z,24.90
2023-10-20T00:58:07.056Z,24.83
2023-10-20T01:00:36.255Z,24.63
2023-10-20T01:03:06.116Z,23.93
2023-10-20T01:05:35.594Z,23.80
2023-10-20T01:08:06.369Z,23.77
2023-10-20T01:10:37.218Z,23.90
2023-10-20T01:13:06.503Z,24.90
2023-10-20T01:15:36.247Z,23.67
2023-10-20T01:18:08.521Z,24.40
2023-10-20T01:20:39.565Z,25.70
2023-10-20T01:23:19.118Z,24.23
2023-10-20T01:25:54.455Z,24.70
2023-10-20T01:28:24.048Z,25.07
2023-10-20T01:30:53.516Z,23.87
2023-10-20T01:33:51.986Z,26.90
2023-10-20T01:36:21.015Z,26.10
2023-10-20T01:38:52.796Z,25.50
2023-10-20T01:41:22.907Z,26.50
2023-10-20T01:44:01.405Z,24.80
2023-10-20T01:46:32.862Z,24.70
2023-10-20T01:49:02.664Z,25.60
2023-10-20T01:51:31.319Z,26.17
2023-10-20T01:54:07.641Z,25.63
2023-10-20T01:56:45.526Z,24.23
2023-10-20T01:59:20.424Z,25.50
2023-10-20T02:01:56.917Z,25.97
2023-10-20T02:04:26.490Z,26.00
2023-10-20T02:06:57.773Z,24.90
2023-10-20T02:09:40.011Z,24.70
2023-10-20T02:12:11.941Z,24.90
2023-10-20T02:14:56.247Z,26.07
2023-10-20T02:17:33.332Z,24.50
2023-10-20T02:20:04.302Z,24.37
2023-10-20T02:22:35.276Z,25.50
2023-10-20T02:25:07.338Z,25.70
2023-10-20T02:27:37.779Z,26.37
2023-10-20T02:30:08.370Z,28.10
2023-10-20T02:32:46.043Z,26.63
2023-10-20T02:35:22.949Z,27.30
2023-10-20T02:37:55.293Z,26.90
2023-10-20T02:40:40.430Z,26.90
2023-10-20T02:43:17.039Z,30.37
2023-10-20T02:45:56.132Z,30.90
2023-10-20T02:48:28.425Z,29.97
2023-10-20T02:50:57.608Z,30.73
2023-10-20T02:53:29.448Z,32.10
2023-10-20T02:55:58.646Z,31.73
2023-10-20T02:58:40.531Z,31.43
2023-10-20T03:01:12.285Z,30.87
2023-10-20T03:03:48.886Z,31.97
2023-10-20T03:06:23.768Z,28.77
2023-10-20T03:08:52.991Z,31.33
2023-10-20T03:11:21.717Z,33.27
2023-10-20T03:14:01.728Z,32.47
2023-10-20T03:16:30.774Z,31.13
2023-10-20T03:19:02.485Z,33.90
2023-10-20T03:21:33.206Z,31.90
2023-10-20T03:24:02.741Z,33.93
2023-10-20T03:26:32.921Z,32.40
2023-10-20T03:29:07.282Z,33.23
2023-10-20T03:31:39.102Z,33.20
2023-10-20T03:34:09.583Z,33.43
2023-10-20T03:36:46.431Z,32.00
2023-10-20T03:39:25.573Z,33.57
2023-10-20T03:41:56.644Z,33.53
2023-10-20T03:44:31.498Z,34.73
2023-10-20T03:47:09.962Z,35.20
2023-10-20T03:49:40.437Z,35.77
2023-10-20T03:52:16.755Z,34.43
2023-10-20T03:54:48.180Z,34.50
2023-10-20T03:57:20.599Z,37.97
2023-10-20T03:59:54.899Z,36.00
2023-10-20T04:02:25.671Z,35.10
2023-10-20T04:04:57.456Z,35.10
2023-10-20T04:07:27.936Z,37.50
2023-10-20T04:10:07.447Z,35.23
2023-10-20T04:12:52.061Z,37.17
2023-10-20T04:15:34.967Z,36.40
2023-10-20T04:18:07.844Z,37.47
2023-10-20T04:20:45.347Z,34.63
2023-10-20T04:23:23.056Z,38.63
2023-10-20T04:25:55.057Z,35.90
2023-10-20T04:28:29.774Z,37.33
2023-10-20T04:31:34.156Z,36.50
2023-10-20T04:34:25.695Z,34.43
2023-10-20T04:37:13.936Z,34.97
2023-10-20T04:40:00.877Z,35.53
2023-10-20T04:42:47.760Z,36.67
2023-10-20T04:45:38.626Z,35.60
2023-10-20T04:48:40.763Z,35.10
2023-10-20T04:51:21.416Z,34.83
2023-10-20T04:54:08.709Z,35.43
2023-10-20T04:57:19.087Z,35.00
2023-10-20T05:00:01.320Z,34.03
2023-10-20T05:02:35.490Z,34.00
2023-10-20T05:05:24.289Z,34.67
2023-10-20T05:07:58.036Z,32.70
2023-10-20T05:10:34.326Z,32.87
2023-10-20T05:13:08.745Z,32.90
2023-10-20T05:15:49.689Z,33.60
2023-10-20T05:18:27.850Z,34.20
2023-10-20T05:20:57.705Z,34.40
2023-10-20T05:23:27.169Z,33.47
2023-10-20T05:25:57.440Z,31.30
2023-10-20T05:28:29.061Z,36.43
2023-10-20T05:30:59.889Z,30.07
2023-10-20T05:33:34.212Z,32.40
2023-10-20T05:36:07.317Z,32.37
2023-10-20T05:38:39.001Z,31.20
2023-10-20T05:41:08.479Z,33.87
2023-10-20T05:43:40.114Z,32.13
2023-10-20T05:46:10.675Z,31.67
2023-10-20T05:48:39.726Z,31.70
2023-10-20T05:51:10.012Z,31.27
2023-10-20T05:53:39.475Z,32.00
2023-10-20T05:56:16.946Z,29.47
2023-10-20T05:58:55.334Z,32.63
2023-10-20T06:01:24.414Z,34.40
2023-10-20T06:03:59.677Z,31.80
2023-10-20T06:06:38.670Z,33.50
2023-10-20T06:09:10.450Z,32.40
2023-10-20T06:11:39.771Z,30.37
2023-10-20T06:14:08.690Z,31.07
2023-10-20T06:16:46.101Z,31.47
2023-10-20T06:19:25.189Z,31.30
2023-10-20T06:21:57.133Z,33.10
2023-10-20T06:24:28.467Z,30.40
2023-10-20T06:27:04.110Z,31.13
2023-10-20T06:29:47.394Z,32.43
2023-10-20T06:32:29.532Z,32.30
2023-10-20T06:35:01.927Z,29.60
2023-10-20T06:37:59.394Z,30.50
2023-10-20T06:40:28.846Z,30.70
2023-10-20T06:42:58.199Z,30.00
2023-10-20T06:45:34.804Z,29.47
2023-10-20T06:48:08.077Z,32.03
2023-10-20T06:50:37.017Z,28.90
2023-10-20T06:53:07.872Z,30.00
2023-10-20T06:55:59.941Z,29.63
2023-10-20T06:58:26.310Z,28.73
2023-10-20T07:00:54.819Z,29.87
2023-10-20T07:03:26.917Z,30.77
2023-10-20T07:05:58.649Z,30.13
2023-10-20T07:08:31.566Z,31.20
2023-10-20T07:11:07.269Z,31.80
2023-10-20T07:13:36.791Z,29.20
2023-10-20T07:16:08.274Z,29.17
2023-10-20T07:18:45.539Z,29.77
2023-10-20T07:21:30.688Z,29.73
2023-10-20T07:24:11.194Z,29.80
2023-10-20T07:26:39.763Z,30.90
2023-10-20T07:29:18.623Z,31.30
2023-10-20T07:31:48.608Z,27.90
2023-10-20T07:34:20.833Z,28.63
2023-10-20T07:36:50.273Z,27.00
2023-10-20T07:39:19.766Z,29.33
2023-10-20T07:41:54.682Z,30.07
2023-10-20T07:44:26.440Z,28.53
2023-10-20T07:47:03.465Z,28.93
2023-10-20T07:49:31.829Z,27.10
2023-10-20T07:52:03.210Z,27.83
2023-10-20T07:54:35.427Z,27.03
2023-10-20T07:57:06.926Z,29.17
2023-10-20T07:59:36.623Z,27.07
2023-10-20T08:02:06.788Z,29.07
2023-10-20T08:04:39.018Z,27.60
2023-10-20T08:07:18.800Z,27.37
2023-10-20T08:09:50.926Z,27.27
2023-10-20T08:12:26.232Z,26.77
2023-10-20T08:14:57.970Z,28.07
2023-10-20T08:17:29.007Z,26.20
2023-10-20T08:20:01.044Z,24.73
2023-10-20T08:22:46.086Z,24.83
2023-10-20T08:25:29.409Z,27.83
2023-10-20T08:28:07.488Z,25.33
2023-10-20T08:30:41.741Z,24.70
2023-10-20T08:33:10.647Z,23.83
2023-10-20T08:35:39.824Z,24.17
2023-10-20T08:38:44.083Z,23.10
2023-10-20T08:41:26.606Z,23.13
2023-10-20T08:43:57.799Z,22.07
2023-10-20T08:46:35.348Z,21.80
2023-10-20T08:49:05.276Z,19.43
2023-10-20T08:51:40.008Z,21.03
2023-10-20T08:54:10.874Z,19.93
2023-10-20T08:56:44.300Z,17.20
2023-10-20T08:59:16.639Z,16.23
2023-10-20T09:01:48.587Z,12.10
2023-10-20T09:04:23.509Z,5.97
2023-10-20T09:06:56.072Z,4.80
2023-10-20T09:09:27.073Z,5.70
2023-10-20T09:12:01.572Z,4.97
2023-10-20T09:14:30.687Z,5.40
2023-10-20T09:17:02.926Z,4.90
2023-10-20T09:19:34.337Z,4.97
2023-10-20T09:22:05.215Z,4.40
2023-10-20T09:24:36.726Z,4.63
2023-10-20T09:27:15.939Z,4.17
2023-10-20T09:29:44.719Z,4.53
2023-10-20T09:32:22.537Z,4.77
2023-10-20T09:34:52.386Z,4.00
2023-10-20T09:37:26.068Z,4.67
2023-10-20T09:40:06.540Z,4.33
2023-10-20T09:42:48.077Z,4.20
2023-10-20T09:45:18.326Z,4.40
2023-10-20T09:47:54.383Z,4.43
2023-10-20T09:50:25.495Z,4.40
2023-10-20T09:52:57.089Z,4.57
2023-10-20T09:55:26.750Z,3.87
2023-10-20T09:58:01.973Z,4.97
2023-10-20T10:00:33.480Z,4.63
2023-10-20T10:03:03.514Z,5.07
2023-10-20T10:05:35.609Z,4.60
2023-10-20T10:08:07.837Z,4.57
2023-10-20T10:10:37.625Z,4.23
2023-10-20T10:13:12.733Z,4.00
2023-10-20T10:15:42.199Z,4.47
2023-10-20T10:18:24.219Z,3.93
2023-10-20T10:20:56.020Z,4.63
2023-10-20T10:23:34.860Z,4.20
2023-10-20T10:26:19.362Z,4.03
2023-10-20T10:28:54.182Z,3.77
2023-10-20T10:31:22.889Z,4.20
2023-10-20T10:34:11.426Z,4.50
2023-10-20T10:36:51.399Z,4.00
2023-10-20T10:39:29.601Z,4.27
2023-10-20T10:42:06.488Z,4.83
2023-10-20T10:44:40.665Z,3.80
2023-10-20T10:47:24.385Z,3.90
2023-10-20T10:49:56.488Z,3.10
2023-10-20T10:52:24.774Z,3.30
2023-10-20T10:54:58.837Z,4.50
2023-10-20T10:57:41.746Z,4.20
2023-10-20T11:00:24.122Z,4.13
2023-10-20T11:02:52.704Z,3.80
2023-10-20T11:05:36.373Z,4.40
2023-10-20T11:08:14.992Z,4.23
2023-10-20T11:10:48.346Z,3.80
2023-10-20T11:13:24.359Z,3.40
2023-10-20T11:16:08.148Z,3.60
2023-10-20T11:18:39.834Z,3.87
2023-10-20T11:21:16.178Z,3.67
2023-10-20T11:23:56.059Z,3.87
2023-10-20T11:26:26.587Z,4.07
2023-10-20T11:28:59.331Z,3.70
2023-10-20T11:31:34.057Z,5.37
2023-10-20T11:34:06.336Z,4.23
2023-10-20T11:36:35.622Z,3.90
2023-10-20T11:39:12.322Z,4.93
2023-10-20T11:41:43.587Z,3.57
2023-10-20T11:44:23.148Z,4.03
2023-10-20T11:46:58.986Z,3.33
2023-10-20T11:49:30.877Z,3.87
2023-10-20T11:52:13.881Z,3.83
2023-10-20T11:54:54.003Z,3.80
2023-10-20T11:57:26.715Z,3.70
2023-10-20T11:59:55.026Z,3.43
2023-10-20T12:02:38.875Z,3.70
2023-10-20T12:05:11.432Z,2.90
2023-10-20T12:07:41.362Z,2.83
2023-10-20T12:10:21.348Z,3.33
2023-10-20T12:12:54.252Z,3.33
2023-10-20T12:15:25.245Z,3.80
2023-10-20T12:17:56.090Z,3.70
2023-10-20T12:20:26.430Z,3.07
2023-10-20T12:23:00.110Z,3.90
2023-10-20T12:25:31.697Z,4.00
2023-10-20T12:28:10.221Z,3.43
2023-10-20T12:30:40.588Z,3.43
2023-10-20T12:33:20.816Z,4.00
2023-10-20T12:35:52.691Z,4.10
2023-10-20T12:38:28.983Z,4.17
2023-10-20T12:40:58.028Z,4.03
2023-10-20T12:43:29.191Z,3.97
2023-10-20T12:46:00.355Z,3.60
2023-10-20T12:48:36.277Z,4.37
2023-10-20T12:51:09.717Z,4.00
2023-10-20T12:53:38.310Z,4.33
2023-10-20T12:56:09.143Z,4.20
2023-10-20T12:58:43.178Z,4.93
2023-10-20T13:01:25.165Z,3.83
2023-10-20T13:04:06.004Z,4.07
2023-10-20T13:06:49.819Z,5.10
2023-10-20T13:09:29.968Z,3.43
2023-10-20T13:11:59.112Z,3.90
2023-10-20T13:14:28.014Z,4.30
2023-10-20T13:19:54.893Z,5.00
2023-10-20T13:22:28.513Z,4.40
2023-10-20T13:25:04.995Z,4.87
2023-10-20T13:27:36.743Z,4.90
2023-10-20T13:30:16.792Z,4.23
2023-10-20T13:32:45.070Z,4.63
2023-10-20T13:35:26.341Z,4.57
2023-10-20T13:37:56.310Z,4.70
2023-10-20T13:40:35.664Z,5.97
2023-10-20T13:43:06.476Z,4.70
2023-10-20T13:45:39.029Z,4.77
2023-10-20T13:48:10.561Z,4.97
2023-10-20T13:50:43.482Z,4.53
2023-10-20T13:53:15.863Z,5.80
2023-10-20T13:55:46.050Z,5.50
2023-10-20T13:58:23.153Z,4.70
2023-10-20T14:00:54.919Z,5.93
2023-10-20T14:03:28.359Z,5.70
2023-10-20T14:06:10.444Z,4.87
2023-10-20T14:08:42.505Z,4.50
2023-10-20T14:11:15.074Z,4.73
2023-10-20T14:13:48.635Z,5.63
2023-10-20T14:16:21.727Z,5.00
2023-10-20T14:19:05.732Z,4.73
2023-10-20T14:21:52.006Z,4.50
2023-10-20T14:24:22.575Z,5.07
2023-10-20T14:26:59.197Z,5.50
2023-10-20T14:29:30.249Z,5.23
2023-10-20T14:31:58.507Z,4.50
2023-10-20T14:34:27.096Z,4.93
2023-10-20T14:37:02.524Z,5.43
2023-10-20T14:39:31.218Z,4.57
2023-10-20T14:42:03.067Z,5.30
2023-10-20T14:44:40.917Z,5.00
2023-10-20T14:47:12.473Z,5.37
2023-10-20T14:49:45.054Z,5.20
2023-10-20T14:52:30.463Z,4.53
2023-10-20T14:55:08.232Z,5.30
2023-10-20T14:57:42.385Z,4.80
2023-10-20T15:00:19.981Z,5.03
2023-10-20T15:02:53.079Z,5.07
2023-10-20T15:05:27.315Z,5.27
2023-10-20T15:08:05.216Z,5.67
2023-10-20T15:10:34.215Z,7.40
2023-10-20T15:13:06.698Z,6.20
2023-10-20T15:15:36.237Z,6.27
2023-10-20T15:18:13.716Z,5.80
2023-10-20T15:20:53.799Z,5.30
2023-10-20T15:23:31.116Z,4.80
2023-10-20T15:26:01.401Z,4.97
2023-10-20T15:28:31.817Z,4.97
2023-10-20T15:31:11.023Z,5.17
2023-10-20T15:33:41.842Z,5.10
2023-10-20T15:36:12.218Z,4.77
2023-10-20T15:38:50.459Z,5.90
2023-10-20T15:41:22.991Z,5.83
2023-10-20T15:43:58.088Z,4.77
2023-10-20T15:46:29.889Z,5.40
2023-10-20T15:48:58.453Z,4.70
2023-10-20T15:51:29.387Z,4.70
2023-10-20T15:54:04.183Z,4.83
2023-10-20T15:56:33.333Z,4.93
2023-10-20T15:59:04.506Z,5.33
2023-10-20T16:01:35.760Z,4.83
2023-10-20T16:04:14.956Z,5.53
2023-10-20T16:06:48.349Z,5.27
2023-10-20T16:09:33.973Z,5.27
2023-10-20T16:12:05.343Z,5.47
2023-10-20T16:14:33.586Z,5.90
2023-10-20T16:17:02.464Z,5.37
2023-10-20T16:19:39.384Z,5.10
2023-10-20T16:22:09.849Z,5.90
2023-10-20T16:24:52.205Z,5.07
2023-10-20T16:27:25.914Z,5.80
2023-10-20T16:30:06.678Z,5.77
2023-10-20T16:32:47.838Z,5.50
2023-10-20T16:35:22.172Z,6.47
2023-10-20T16:37:57.722Z,4.87
2023-10-20T16:40:46.121Z,5.40
2023-10-20T16:43:19.208Z,5.80
2023-10-20T16:45:53.024Z,5.10
2023-10-20T16:48:26.731Z,5.50
2023-10-20T16:51:01.754Z,4.90
2023-10-20T16:53:47.898Z,4.30
2023-10-20T16:56:38.214Z,6.37
2023-10-20T16:59:13.475Z,5.00
2023-10-20T17:01:46.776Z,6.13
2023-10-20T17:04:22.474Z,6.10
2023-10-20T17:06:56.189Z,4.57
2023-10-20T17:09:35.306Z,5.23
2023-10-20T17:12:18.343Z,5.37
2023-10-20T17:15:00.346Z,5.83
2023-10-20T17:17:34.430Z,4.90
2023-10-20T17:20:08.079Z,5.90
2023-10-20T17:22:48.254Z,6.03
2023-10-20T17:25:32.706Z,5.80
2023-10-20T17:28:06.780Z,5.20
2023-10-20T17:30:47.874Z,5.93
2023-10-20T17:33:19.543Z,5.43
2023-10-20T17:35:53.453Z,5.43
2023-10-20T17:38:24.810Z,5.67
2023-10-20T17:40:59.312Z,5.20
2023-10-20T17:43:43.398Z,5.63
2023-10-20T17:46:22.199Z,5.40
2023-10-20T17:48:57.131Z,4.67
2023-10-20T17:51:38.549Z,5.77
2023-10-20T17:54:28.291Z,6.53
2023-10-20T17:57:13.940Z,6.17
2023-10-20T18:00:07.633Z,6.57
2023-10-20T18:02:57.673Z,5.50
2023-10-20T18:05:38.253Z,6.40
2023-10-20T18:08:19.936Z,5.17
2023-10-20T18:10:52.619Z,6.03
2023-10-20T18:13:28.425Z,6.10
2023-10-20T18:16:05.791Z,6.20
2023-10-20T18:18:46.407Z,5.10
2023-10-20T18:21:28.892Z,5.80
2023-10-20T18:24:05.902Z,4.80
2023-10-20T18:26:40.103Z,5.20
2023-10-20T18:32:13.821Z,6.43
2023-10-20T18:35:02.206Z,5.53
2023-10-20T18:37:35.438Z,5.87
2023-10-20T18:40:11.966Z,5.10
2023-10-20T18:42:49.050Z,6.00
2023-10-20T18:45:21.292Z,6.13
2023-10-20T18:47:58.614Z,6.47
2023-10-20T18:50:32.310Z,5.53
2023-10-20T18:53:07.550Z,5.53
2023-10-20T18:55:44.716Z,6.30
2023-10-20T18:58:27.129Z,6.10
2023-10-20T19:01:08.000Z,5.63
2023-10-20T19:04:04.154Z,5.57
2023-10-20T19:06:40.534Z,5.90
2023-10-20T19:09:22.276Z,6.07
2023-10-20T19:11:53.738Z,6.13
2023-10-20T19:14:35.363Z,6.00
2023-10-20T19:17:15.556Z,6.30
2023-10-20T19:19:53.408Z,6.37
2023-10-20T19:22:45.228Z,5.93
2023-10-20T19:25:21.904Z,5.27
2023-10-20T19:28:09.412Z,5.87
2023-10-20T19:30:42.726Z,6.13
2023-10-20T19:33:20.258Z,5.77
2023-10-20T19:35:57.163Z,6.27
2023-10-20T19:38:31.330Z,6.10
2023-10-20T19:41:06.359Z,7.10
2023-10-20T19:43:51.598Z,6.10
2023-10-20T19:46:29.315Z,5.97
2023-10-20T19:49:05.669Z,6.17
2023-10-20T19:51:56.940Z,7.33
2023-10-20T19:54:43.426Z,5.90
2023-10-20T19:57:17.541Z,6.13
2023-10-20T20:00:02.795Z,5.63
2023-10-20T20:03:03.314Z,6.87
2023-10-20T20:05:47.223Z,5.50
2023-10-20T20:08:42.512Z,5.53
2023-10-20T20:11:13.672Z,7.10
2023-10-20T20:13:50.564Z,6.70
2023-10-20T20:16:28.188Z,6.67
2023-10-20T20:18:59.876Z,6.33
2023-10-20T20:21:32.610Z,6.27
2023-10-20T20:24:23.588Z,5.97
2023-10-20T20:26:54.688Z,5.93
2023-10-20T20:29:34.973Z,6.83
2023-10-20T20:32:06.593Z,6.30
2023-10-20T20:34:43.603Z,6.47
2023-10-20T20:37:13.985Z,6.57
2023-10-20T20:39:46.389Z,5.97
2023-10-20T20:42:14.955Z,6.40
2023-10-20T20:44:51.270Z,6.37
2023-10-20T20:47:24.611Z,6.03
2023-10-20T20:50:13.240Z,6.83
2023-10-20T20:52:51.036Z,6.17
2023-10-20T20:55:30.149Z,6.07
2023-10-20T20:58:12.159Z,6.70
2023-10-20T21:00:46.781Z,7.93
2023-10-20T21:03:22.452Z,5.93
2023-10-20T21:06:03.872Z,5.30
2023-10-20T21:08:48.015Z,6.53
2023-10-20T21:11:20.389Z,6.77
2023-10-20T21:13:52.808Z,5.50
2023-10-20T21:16:24.620Z,6.10
2023-10-20T21:18:55.902Z,7.53
2023-10-20T21:21:32.696Z,6.30
2023-10-20T21:24:06.383Z,7.13
2023-10-20T21:26:45.125Z,6.23
2023-10-20T21:29:25.822Z,7.20
2023-10-20T21:32:00.767Z,6.13
2023-10-20T21:34:37.336Z,6.00
2023-10-20T21:37:05.761Z,6.47
2023-10-20T21:39:35.624Z,6.40
2023-10-20T21:42:12.173Z,6.50
2023-10-20T21:44:41.746Z,6.07
2023-10-20T21:47:14.074Z,7.33
2023-10-20T21:49:44.816Z,5.87
2023-10-20T21:52:15.112Z,6.57
2023-10-20T21:54:45.481Z,6.33
2023-10-20T21:57:17.511Z,7.50
2023-10-20T21:59:45.710Z,6.60
2023-10-20T22:02:25.180Z,6.73
2023-10-20T22:04:54.257Z,6.00
2023-10-20T22:07:26.615Z,5.60
2023-10-20T22:12:56.146Z,6.30
2023-10-20T22:15:30.421Z,6.43
2023-10-20T22:18:04.347Z,7.00
2023-10-20T22:20:33.771Z,6.80
2023-10-20T22:23:05.821Z,6.20
2023-10-20T22:25:43.454Z,5.80
2023-10-20T22:28:33.094Z,6.90
2023-10-20T22:31:04.252Z,7.00
2023-10-20T22:33:40.788Z,6.20
2023-10-20T22:36:11.547Z,7.20
2023-10-20T22:38:43.585Z,7.23
2023-10-20T22:41:14.136Z,6.80
2023-10-20T22:44:00.235Z,6.50
2023-10-20T22:46:34.320Z,6.47
2023-10-20T22:49:05.997Z,7.40
2023-10-20T22:51:37.895Z,5.80
2023-10-20T22:54:08.066Z,7.27
2023-10-20T22:56:38.852Z,7.27
2023-10-20T22:59:24.038Z,6.00
2023-10-20T23:01:57.656Z,6.40
2023-10-20T23:04:29.556Z,5.80
2023-10-20T23:06:58.962Z,6.80
2023-10-20T23:09:30.076Z,6.93
2023-10-20T23:11:58.945Z,6.87
2023-10-20T23:14:37.863Z,6.87
2023-10-20T23:17:18.279Z,6.33
2023-10-20T23:19:47.519Z,7.23
2023-10-20T23:22:24.451Z,5.77
2023-10-20T23:24:54.388Z,6.57
2023-10-20T23:27:22.862Z,6.70
2023-10-20T23:29:52.921Z,6.37
2023-10-20T23:32:21.853Z,6.30
2023-10-20T23:34:57.251Z,7.90
2023-10-20T23:37:37.154Z,8.10
2023-10-20T23:40:12.795Z,6.00
2023-10-20T23:42:43.967Z,6.90
2023-10-20T23:45:24.348Z,6.50
2023-10-20T23:47:58.217Z,7.07
2023-10-20T23:50:32.914Z,7.30
2023-10-20T23:53:10.612Z,7.60
2023-10-20T23:55:40.047Z,6.33
2023-10-20T23:58:08.921Z,6.83
